createdAt,value
2022-10-29T00:03:20.719Z,99541.28
2022-10-29T00:08:23.544Z,99541.41
2022-10-29T00:13:26.498Z,99540.47
2022-10-29T00:18:30.519Z,99546.44
2022-10-29T00:23:33.535Z,99545.53
2022-10-29T00:28:36.857Z,99548.13
2022-10-29T00:33:39.448Z,99532.66
2022-10-29T00:38:42.692Z,99533.44
2022-10-29T00:43:51.441Z,99531.91
2022-10-29T00:48:56.136Z,99522.56
2022-10-29T00:54:04.979Z,99513.22
2022-10-29T00:59:09.197Z,99506.47
2022-10-29T01:04:12.403Z,99498.88
2022-10-29T01:09:15.040Z,99503.13
2022-10-29T01:14:31.032Z,99495.56
2022-10-29T01:20:04.342Z,99485.31
2022-10-29T01:25:27.159Z,99490.56
2022-10-29T01:30:54.537Z,99486.28
2022-10-29T01:35:59.624Z,99471.63
2022-10-29T01:41:17.276Z,99477.69
2022-10-29T01:46:25.558Z,99471.63
2022-10-29T01:51:33.183Z,99440.72
2022-10-29T01:56:35.804Z,99457.09
2022-10-29T02:01:56.485Z,99454.38
2022-10-29T02:07:28.523Z,99444.94
2022-10-29T02:12:40.587Z,99435.53
2022-10-29T02:18:07.077Z,99451.94
2022-10-29T02:23:09.867Z,99445.00
2022-10-29T02:28:13.260Z,99437.25
2022-10-29T02:33:15.868Z,99420.94
2022-10-29T02:38:18.468Z,99423.34
2022-10-29T02:43:21.058Z,99424.16
2022-10-29T02:48:23.642Z,99419.03
2022-10-29T02:53:26.179Z,99413.81
2022-10-29T02:58:28.880Z,99399.19
2022-10-29T03:03:31.497Z,99400.75
2022-10-29T03:08:34.031Z,99397.31
2022-10-29T03:18:44.095Z,99386.94
2022-10-29T03:23:47.259Z,99368.00
2022-10-29T03:28:49.888Z,99354.19
2022-10-29T03:33:52.550Z,99363.41
2022-10-29T03:38:55.180Z,99354.75
2022-10-29T03:43:57.873Z,99329.94
2022-10-29T03:49:00.556Z,99338.31
2022-10-29T03:54:03.151Z,99343.63
2022-10-29T03:59:05.872Z,99324.59
2022-10-29T04:04:10.028Z,99328.84
2022-10-29T04:09:12.583Z,99303.91
2022-10-29T04:14:15.169Z,99316.59
2022-10-29T04:19:17.879Z,99307.09
2022-10-29T04:29:43.357Z,99287.09
2022-10-29T04:34:45.961Z,99278.56
2022-10-29T04:39:48.559Z,99273.44
2022-10-29T04:44:51.134Z,99254.63
2022-10-29T04:49:53.811Z,99261.47
2022-10-29T04:54:56.405Z,99259.75
2022-10-29T04:59:58.978Z,99237.47
2022-10-29T05:05:01.763Z,99242.47
2022-10-29T05:10:06.102Z,99229.69
2022-10-29T05:15:08.908Z,99243.22
2022-10-29T05:20:11.771Z,99241.50
2022-10-29T05:25:15.104Z,99238.88
2022-10-29T05:30:17.851Z,99229.31
2022-10-29T05:35:20.459Z,99210.47
2022-10-29T05:40:24.264Z,99219.00
2022-10-29T05:45:26.887Z,99218.03
2022-10-29T05:50:30.485Z,99214.38
2022-10-29T05:55:34.765Z,99207.44
2022-10-29T06:00:39.900Z,99215.06
2022-10-29T06:05:42.734Z,99206.59
2022-10-29T06:10:45.717Z,99187.66
2022-10-29T06:15:51.287Z,99197.59
2022-10-29T06:20:55.078Z,99200.22
2022-10-29T06:26:02.066Z,99172.78
2022-10-29T06:31:05.002Z,99189.09
2022-10-29T06:36:08.218Z,99182.44
2022-10-29T06:41:10.947Z,99166.28
2022-10-29T06:46:13.602Z,99174.16
2022-10-29T06:51:16.753Z,99161.81
2022-10-29T06:56:19.896Z,99159.66
2022-10-29T07:01:24.590Z,99141.50
2022-10-29T07:06:33.671Z,99141.41
2022-10-29T07:11:36.337Z,99134.41
2022-10-29T07:16:38.884Z,99123.13
2022-10-29T07:21:42.037Z,99114.34
2022-10-29T07:26:44.786Z,99066.53
2022-10-29T07:31:47.475Z,99107.25
2022-10-29T07:36:50.345Z,99107.19
2022-10-29T07:41:55.317Z,99087.00
2022-10-29T07:47:03.186Z,99093.13
2022-10-29T07:52:05.832Z,99078.50
2022-10-29T07:57:08.769Z,99068.22
2022-10-29T08:02:11.883Z,99068.25
2022-10-29T08:07:14.538Z,99070.19
2022-10-29T08:12:17.294Z,99040.66
2022-10-29T08:17:19.908Z,99059.41
2022-10-29T08:22:22.832Z,99049.22
2022-10-29T08:27:25.803Z,99046.72
2022-10-29T08:32:28.588Z,99044.69
2022-10-29T08:37:31.784Z,99017.44
2022-10-29T08:42:40.591Z,99040.53
2022-10-29T08:48:06.293Z,99027.34
2022-10-29T08:53:23.692Z,99007.94
2022-10-29T08:58:33.492Z,98998.03
2022-10-29T09:03:36.155Z,98988.97
2022-10-29T09:08:45.097Z,98981.69
2022-10-29T09:14:00.617Z,98973.41
2022-10-29T09:19:08.341Z,98962.56
2022-10-29T09:24:35.294Z,98958.31
2022-10-29T09:29:58.327Z,98944.34
2022-10-29T09:35:06.060Z,98943.63
2022-10-29T09:40:33.019Z,98932.31
2022-10-29T09:45:50.937Z,98897.88
2022-10-29T09:51:22.624Z,98919.13
2022-10-29T09:56:25.541Z,98918.66
2022-10-29T10:01:28.837Z,98909.44
2022-10-29T10:07:11.098Z,98904.50
2022-10-29T10:12:13.742Z,98899.97
2022-10-29T10:17:16.675Z,98896.88
2022-10-29T10:22:22.654Z,98883.53
2022-10-29T10:27:34.396Z,98869.19
2022-10-29T10:32:37.115Z,98838.44
2022-10-29T10:37:39.803Z,98828.19
2022-10-29T10:42:47.196Z,98836.63
2022-10-29T10:47:56.477Z,98843.81
2022-10-29T10:53:03.089Z,98827.13
2022-10-29T10:58:10.066Z,98813.28
2022-10-29T11:03:18.134Z,98822.78
2022-10-29T11:08:45.614Z,98762.56
2022-10-29T11:13:50.333Z,98795.00
2022-10-29T11:19:05.802Z,98796.31
2022-10-29T11:24:27.847Z,98796.16
2022-10-29T11:29:47.473Z,98791.59
2022-10-29T11:35:46.959Z,98787.72
2022-10-29T11:40:54.977Z,98765.38
2022-10-29T11:46:21.602Z,98770.41
2022-10-29T11:51:41.311Z,98772.25
2022-10-29T11:56:43.882Z,98770.78
2022-10-29T12:01:58.466Z,98757.09
2022-10-29T12:07:31.884Z,98753.72
2022-10-29T12:12:56.397Z,98720.19
2022-10-29T12:18:37.039Z,98737.25
2022-10-29T12:24:01.754Z,98734.34
2022-10-29T12:29:32.582Z,98729.06
2022-10-29T12:34:38.110Z,98730.00
2022-10-29T12:39:55.818Z,98665.13
2022-10-29T12:45:06.823Z,98709.31
2022-10-29T12:50:26.650Z,98705.06
2022-10-29T12:55:30.860Z,98697.47
2022-10-29T13:00:45.897Z,98689.41
2022-10-29T13:05:48.571Z,98691.78
2022-10-29T13:10:53.223Z,98649.50
2022-10-29T13:16:02.700Z,98680.22
2022-10-29T13:21:05.776Z,98670.63
2022-10-29T13:26:09.014Z,98660.75
2022-10-29T13:31:14.352Z,98647.22
2022-10-29T13:36:16.890Z,98648.91
2022-10-29T13:41:42.331Z,98642.84
2022-10-29T13:46:56.705Z,98632.56
2022-10-29T13:52:14.568Z,98616.72
2022-10-29T13:57:25.350Z,98619.78
2022-10-29T14:02:37.293Z,98612.47
2022-10-29T14:07:48.608Z,98604.97
2022-10-29T14:12:58.007Z,98593.78
2022-10-29T14:18:23.248Z,98582.56
2022-10-29T14:23:26.899Z,98577.72
2022-10-29T14:28:31.643Z,98570.47
2022-10-29T14:33:36.796Z,98548.66
2022-10-29T14:38:47.702Z,98521.63
2022-10-29T14:43:58.725Z,98546.28
2022-10-29T14:49:04.378Z,98536.78
2022-10-29T14:54:15.615Z,98532.25
2022-10-29T14:59:24.931Z,98520.78
2022-10-29T15:04:32.610Z,98489.56
2022-10-29T15:09:35.225Z,98506.81
2022-10-29T15:14:47.475Z,98496.78
2022-10-29T15:20:03.324Z,98459.31
2022-10-29T15:25:19.305Z,98454.03
2022-10-29T15:30:29.173Z,98470.91
2022-10-29T15:35:32.067Z,98462.09
2022-10-29T15:40:34.618Z,98455.16
2022-10-29T15:45:37.153Z,98457.69
2022-10-29T15:50:44.927Z,98448.13
2022-10-29T15:55:53.000Z,98440.09
2022-10-29T16:00:55.743Z,98434.94
2022-10-29T16:06:03.990Z,98413.81
2022-10-29T16:11:11.203Z,98421.03
2022-10-29T16:16:22.520Z,98409.00
2022-10-29T16:21:26.360Z,98400.66
2022-10-29T16:26:29.423Z,98382.94
2022-10-29T16:31:32.091Z,98386.16
2022-10-29T16:36:34.801Z,98384.28
2022-10-29T16:41:37.409Z,98378.16
2022-10-29T16:46:40.027Z,98367.34
2022-10-29T16:51:42.907Z,98358.75
2022-10-29T16:56:46.539Z,98358.50
2022-10-29T17:01:49.204Z,98344.88
2022-10-29T17:06:51.822Z,98344.06
2022-10-29T17:11:54.383Z,98326.59
2022-10-29T17:16:57.407Z,98329.28
2022-10-29T17:22:00.217Z,98307.63
2022-10-29T17:27:02.927Z,98294.41
2022-10-29T17:32:07.568Z,98288.97
2022-10-29T17:37:11.423Z,98281.47
2022-10-29T17:42:14.097Z,98260.50
2022-10-29T17:47:16.656Z,98264.00
2022-10-29T17:52:19.680Z,98252.59
2022-10-29T17:57:22.276Z,98225.97
2022-10-29T18:02:25.032Z,98235.59
2022-10-29T18:07:27.798Z,98227.06
2022-10-29T18:12:30.541Z,98210.38
2022-10-29T18:17:33.551Z,98207.53
2022-10-29T18:22:36.656Z,98175.63
2022-10-29T18:27:40.835Z,98182.69
2022-10-29T18:32:43.458Z,98180.78
2022-10-29T18:37:47.068Z,98171.00
2022-10-29T18:42:49.811Z,98163.75
2022-10-29T18:47:52.397Z,98163.38
2022-10-29T18:52:55.380Z,98167.13
2022-10-29T18:57:58.210Z,98157.72
2022-10-29T19:03:00.914Z,98156.63
2022-10-29T19:08:05.784Z,98150.53
2022-10-29T19:13:08.906Z,98146.28
2022-10-29T19:18:12.115Z,98140.94
2022-10-29T19:23:14.843Z,98135.22
2022-10-29T19:28:17.423Z,98129.03
2022-10-29T19:33:20.032Z,98080.38
2022-10-29T19:38:22.742Z,98110.25
2022-10-29T19:43:28.675Z,98105.75
2022-10-29T19:48:31.212Z,98097.06
2022-10-29T19:53:33.990Z,98090.06
2022-10-29T19:58:36.566Z,98079.41
2022-10-29T20:03:39.202Z,98060.22
2022-10-29T20:08:42.186Z,98027.28
2022-10-29T20:13:45.433Z,98040.25
2022-10-29T20:18:48.995Z,98017.88
2022-10-29T20:23:51.973Z,98010.56
2022-10-29T20:28:57.147Z,97984.06
2022-10-29T20:34:01.185Z,97975.81
2022-10-29T20:39:04.266Z,97977.19
2022-10-29T20:44:06.872Z,97967.06
2022-10-29T20:49:10.934Z,97954.50
2022-10-29T20:54:13.593Z,97935.25
2022-10-29T20:59:16.800Z,97926.69
2022-10-29T21:04:19.641Z,97919.47
2022-10-29T21:09:22.920Z,97916.03
2022-10-29T21:14:27.623Z,97902.00
2022-10-29T21:19:30.755Z,97895.63
2022-10-29T21:24:33.447Z,97862.66
2022-10-29T21:29:36.237Z,97894.16
2022-10-29T21:34:38.859Z,97884.63
2022-10-29T21:39:41.612Z,97843.38
2022-10-29T21:44:44.309Z,97869.44
2022-10-29T21:49:51.833Z,97860.19
2022-10-29T21:54:54.809Z,97853.25
2022-10-29T21:59:57.551Z,97857.63
2022-10-29T22:05:00.191Z,97848.94
2022-10-29T22:10:03.124Z,97832.38
2022-10-29T22:15:06.519Z,97822.72
2022-10-29T22:20:09.770Z,97814.31
2022-10-29T22:25:12.351Z,97815.09
2022-10-29T22:30:15.063Z,97811.28
2022-10-29T22:35:17.636Z,97805.78
2022-10-29T22:40:20.225Z,97797.25
2022-10-29T22:45:22.762Z,97787.81
2022-10-29T22:50:25.427Z,97787.63
2022-10-29T22:55:27.947Z,97786.84
2022-10-29T23:00:30.656Z,97785.75
2022-10-29T23:05:33.217Z,97783.56
2022-10-29T23:10:36.152Z,97771.13
2022-10-29T23:15:38.727Z,97763.16
2022-10-29T23:20:41.540Z,97756.09
2022-10-29T23:25:44.721Z,97748.16
2022-10-29T23:30:53.344Z,97741.97
2022-10-29T23:35:55.991Z,97731.03
2022-10-29T23:40:58.869Z,97724.03
2022-10-29T23:46:01.957Z,97728.81
2022-10-29T23:51:05.043Z,97729.28
2022-10-29T23:56:08.274Z,97720.81
